Time;durP1;ratioP1;P1;durP2;ratioP2;P2;SDS_P1;SDS_P2;PMS_P1;PMS_P2;Temp;Humidity;BMP_temperature;BMP_pressure;BME280_temperature;BME280_humidity;BME280_pressure;Samples;Min_cycle;Max_cycle;Signal;HPM_P1;HPM_P2
2022/09/01 00:01:50;;;;;;;5.68;4.60;;;;;;;15.04;94.50;100148.44;5089750;28;20598;-80
2022/09/01 00:04:20;;;;;;;8.15;3.90;;;;;;;15.02;94.78;100144.22;5090909;28;20074;-80
2022/09/01 00:06:46;;;;;;;8.52;4.00;;;;;;;14.98;94.95;100149.63;5090907;28;20480;-80
2022/09/01 00:09:15;;;;;;;5.45;4.10;;;;;;;14.98;94.99;100146.19;5091317;28;20453;-80
2022/09/01 00:11:44;;;;;;;7.13;4.82;;;;;;;14.98;94.87;100148.81;5090873;28;20016;-80
2022/09/01 00:14:10;;;;;;;8.95;4.20;;;;;;;14.93;94.73;100141.19;5090912;28;20032;-80
2022/09/01 00:16:37;;;;;;;9.18;4.43;;;;;;;14.97;94.94;100147.97;5095049;28;20046;-80
2022/09/01 00:19:04;;;;;;;6.05;4.15;;;;;;;15.00;94.92;100151.31;5094790;28;20507;-80
2022/09/01 00:21:34;;;;;;;5.80;3.92;;;;;;;14.92;94.99;100142.13;5095099;28;20132;-79
2022/09/01 00:23:59;;;;;;;5.78;3.97;;;;;;;14.91;95.26;100148.28;5094749;28;20475;-80
2022/09/01 00:26:25;;;;;;;7.28;4.32;;;;;;;14.93;95.16;100150.84;5094856;28;20028;-80
2022/09/01 00:28:50;;;;;;;6.28;4.32;;;;;;;14.88;95.24;100151.09;5094630;28;20031;-80
2022/09/01 00:31:18;;;;;;;9.77;4.50;;;;;;;14.85;95.09;100145.19;5094827;28;20024;-80
2022/09/01 00:33:44;;;;;;;7.32;4.30;;;;;;;14.84;95.14;100140.88;5094280;28;20024;-80
2022/09/01 00:36:09;;;;;;;10.13;4.30;;;;;;;14.85;95.11;100146.03;5095053;28;20027;-80
2022/09/01 00:38:35;;;;;;;10.30;4.25;;;;;;;14.89;94.90;100155.41;5094801;28;20416;-80
2022/09/01 00:41:01;;;;;;;5.93;4.07;;;;;;;14.91;94.81;100155.31;5094703;28;20474;-79
2022/09/01 00:43:43;;;;;;;4.80;4.30;;;;;;;14.90;94.90;100151.00;5094642;28;20031;-79
2022/09/01 00:46:15;;;;;;;8.30;4.10;;;;;;;14.90;95.04;100151.00;5094312;28;20069;-80
2022/09/01 00:48:41;;;;;;;6.90;4.05;;;;;;;14.86;94.97;100145.09;5094346;28;20042;-80
2022/09/01 00:51:09;;;;;;;8.18;3.92;;;;;;;14.83;95.05;100139.16;5094371;28;20490;-80
2022/09/01 00:53:37;;;;;;;8.70;4.32;;;;;;;14.88;94.93;100143.25;5094257;28;20038;-80
2022/09/01 00:56:04;;;;;;;7.50;4.55;;;;;;;14.88;94.96;100139.78;5094137;28;20016;-80
2022/09/01 00:58:31;;;;;;;8.15;3.92;;;;;;;14.86;95.11;100139.84;5094628;28;20047;-79
2022/09/01 01:00:56;;;;;;;5.90;4.03;;;;;;;14.87;95.08;100143.31;5094017;28;20141;-80
2022/09/01 01:03:22;;;;;;;6.35;4.25;;;;;;;14.88;95.08;100153.72;5094119;28;20081;-80
2022/09/01 01:05:56;;;;;;;10.65;4.82;;;;;;;14.85;95.20;100145.19;5094051;28;20073;-79
2022/09/01 01:08:33;;;;;;;7.32;4.20;;;;;;;14.87;95.27;100143.31;5094081;28;20494;-80
2022/09/01 01:11:01;;;;;;;7.22;4.38;;;;;;;14.87;95.26;100145.94;5093856;28;20344;-80
2022/09/01 01:13:27;;;;;;;6.15;4.57;;;;;;;14.82;95.27;100142.72;5093836;28;20627;-80
2022/09/01 01:15:52;;;;;;;8.88;4.32;;;;;;;14.81;95.47;100134.00;5093759;28;20028;-80
2022/09/01 01:18:18;;;;;;;5.88;3.97;;;;;;;14.81;95.62;100130.56;5094112;28;20019;-80
2022/09/01 01:23:44;;;;;;;9.70;4.28;;;;;;;14.85;95.51;100142.56;5093948;28;20035;-80
2022/09/01 01:26:10;;;;;;;6.95;4.03;;;;;;;14.82;95.45;100138.31;5093598;28;20082;-80
2022/09/01 01:28:40;;;;;;;9.82;4.90;;;;;;;14.78;95.86;100131.56;5093836;28;20360;-80
2022/09/01 01:31:17;;;;;;;6.17;4.40;;;;;;;14.79;96.13;100137.66;5093601;28;20020;-80
2022/09/01 01:33:46;;;;;;;7.85;4.93;;;;;;;14.73;96.37;100129.19;5093379;28;20285;-79
2022/09/01 01:36:34;;;;;;;7.65;4.38;;;;;;;14.77;96.75;100139.53;5093494;28;20016;-79
2022/09/01 01:39:07;;;;;;;6.55;4.45;;;;;;;14.71;97.18;100140.72;5093554;28;20131;-79
2022/09/01 01:41:34;;;;;;;9.48;5.03;;;;;;;14.67;97.61;100136.59;5093848;28;20477;-79
2022/09/01 01:44:03;;;;;;;5.05;4.05;;;;;;;14.64;97.73;100134.97;5093148;28;20039;-79
2022/09/01 01:46:30;;;;;;;5.90;4.60;;;;;;;14.59;97.90;100130.91;5093368;28;20433;-79
2022/09/01 01:48:55;;;;;;;9.60;4.80;;;;;;;14.57;98.41;100136.22;5092970;28;20585;-79
2022/09/01 01:51:26;;;;;;;6.57;4.53;;;;;;;14.56;98.27;100131.06;5093457;28;20023;-79
2022/09/01 01:53:52;;;;;;;8.10;4.60;;;;;;;14.58;98.33;100135.31;5093016;28;20050;-79
2022/09/01 01:56:18;;;;;;;9.52;4.85;;;;;;;14.52;98.22;100127.78;5093131;28;20030;-80
2022/09/01 01:58:44;;;;;;;8.20;4.90;;;;;;;14.55;98.43;100127.63;5092827;28;20051;-79
2022/09/01 02:01:11;;;;;;;5.68;4.70;;;;;;;14.42;98.52;100116.94;5093046;28;20099;-79
2022/09/01 02:03:38;;;;;;;7.18;4.13;;;;;;;14.50;98.59;100137.50;5092984;28;20062;-80
2022/09/01 02:06:07;;;;;;;8.80;4.90;;;;;;;14.42;98.96;100124.78;5092827;28;20024;-80
2022/09/01 02:08:34;;;;;;;7.53;4.70;;;;;;;14.44;98.69;100133.41;5092981;28;20020;-80
2022/09/01 02:11:00;;;;;;;9.07;5.15;;;;;;;14.43;99.00;100131.72;5092731;28;20050;-80
2022/09/01 02:13:29;;;;;;;7.50;4.35;;;;;;;14.34;99.29;100128.75;5093003;28;20453;-80
2022/09/01 02:15:57;;;;;;;5.38;4.07;;;;;;;14.36;99.61;100140.84;5092500;28;20023;-79
2022/09/01 02:18:33;;;;;;;6.57;4.38;;;;;;;14.33;99.83;100140.19;5092981;28;20349;-79
2022/09/01 02:20:59;;;;;;;6.50;4.72;;;;;;;14.22;100.00;100128.50;5092527;28;20048;-79
2022/09/01 02:23:25;;;;;;;8.23;4.53;;;;;;;14.21;100.00;100120.72;5107353;28;20077;-80
2022/09/01 02:25:54;;;;;;;8.90;4.40;;;;;;;14.21;100.00;100132.03;5092266;28;20028;-80
2022/09/01 02:28:21;;;;;;;6.70;4.40;;;;;;;14.15;100.00;100115.78;5092369;28;20062;-79
2022/09/01 02:30:53;;;;;;;8.02;3.90;;;;;;;14.11;100.00;100104.63;5092562;28;20020;-79
2022/09/01 02:33:21;;;;;;;6.97;4.18;;;;;;;14.18;100.00;100128.75;5092461;28;20016;-79
2022/09/01 02:35:49;;;;;;;5.72;4.50;;;;;;;14.10;100.00;100113.44;5092141;28;20028;-79
2022/09/01 02:38:16;;;;;;;5.68;4.60;;;;;;;14.11;100.00;100128.22;5091658;28;20460;-79
2022/09/01 02:40:45;;;;;;;7.47;5.20;;;;;;;14.13;100.00;100133.38;5092118;28;20024;-79
2022/09/01 02:43:13;;;;;;;8.98;4.57;;;;;;;14.06;100.00;100118.91;5092431;28;20020;-79
2022/09/01 02:45:41;;;;;;;5.90;4.22;;;;;;;14.11;100.00;100124.75;5092269;28;20021;-80
2022/09/01 02:48:08;;;;;;;5.70;4.03;;;;;;;14.10;100.00;100123.91;5092181;28;20024;-80
2022/09/01 02:50:34;;;;;;;9.45;4.45;;;;;;;14.04;100.00;100120.78;5092117;28;20476;-79
2022/09/01 02:52:59;;;;;;;5.53;3.92;;;;;;;14.05;100.00;100125.94;5091655;28;20036;-79
2022/09/01 02:55:25;;;;;;;5.82;4.53;;;;;;;14.00;100.00;100117.47;5092273;28;20031;-79
2022/09/01 02:57:55;;;;;;;8.48;4.00;;;;;;;14.06;100.00;100129.38;5092200;28;20039;-79
2022/09/01 03:00:30;;;;;;;8.07;4.20;;;;;;;14.04;100.00;100118.16;5091934;28;20032;-79
2022/09/01 03:02:57;;;;;;;6.82;4.07;;;;;;;14.01;100.00;100119.16;5091530;28;20049;-79
2022/09/01 03:05:27;;;;;;;7.15;3.92;;;;;;;14.04;100.00;100126.03;5091955;28;20503;-79
2022/09/01 03:07:56;;;;;;;9.45;4.53;;;;;;;14.03;100.00;100135.66;5091559;28;20035;-79
2022/09/01 03:10:31;;;;;;;5.22;3.70;;;;;;;13.95;100.00;100127.34;5106526;28;20028;-80
2022/09/01 03:13:02;;;;;;;6.93;3.88;;;;;;;13.95;100.00;100127.34;5091580;28;20023;-80
2022/09/01 03:15:28;;;;;;;5.38;4.03;;;;;;;13.95;100.00;100122.97;5091766;28;20085;-79
2022/09/01 03:17:53;;;;;;;7.20;4.20;;;;;;;13.90;100.00;100124.13;5091437;28;20027;-79
2022/09/01 03:20:20;;;;;;;7.38;3.85;;;;;;;13.95;100.00;100125.59;5091490;28;20087;-79
2022/09/01 03:22:50;;;;;;;6.70;4.63;;;;;;;13.92;100.00;100127.50;5091500;28;20066;-79
2022/09/01 03:25:17;;;;;;;5.40;3.90;;;;;;;13.91;100.00;100126.66;5091762;28;20479;-79
2022/09/01 03:27:43;;;;;;;7.78;4.30;;;;;;;13.79;100.00;100108.97;5091359;28;20062;-79
2022/09/01 03:30:09;;;;;;;5.93;4.38;;;;;;;13.89;100.00;100132.91;5091571;28;20139;-79
2022/09/01 03:32:34;;;;;;;7.53;4.60;;;;;;;13.77;100.00;100115.22;5091772;28;20398;-79
2022/09/01 03:35:00;;;;;;;6.45;4.53;;;;;;;13.82;100.00;100131.53;5091103;28;20016;-79
2022/09/01 03:37:25;;;;;;;7.30;5.43;;;;;;;13.79;100.00;100122.06;5091419;28;20574;-79
2022/09/01 03:39:51;;;;;;;6.28;5.00;;;;;;;13.80;100.00;100134.22;5091181;28;20016;-79
2022/09/01 03:42:24;;;;;;;8.05;5.18;;;;;;;13.74;100.00;100129.31;5091375;28;20460;-79
2022/09/01 03:44:50;;;;;;;7.20;5.30;;;;;;;13.77;100.00;100137.00;5091057;28;20035;-79
2022/09/01 03:47:17;;;;;;;7.50;5.65;;;;;;;13.74;100.00;100131.94;5091212;28;20028;-79
2022/09/01 03:49:44;;;;;;;8.02;5.30;;;;;;;13.71;100.00;100132.09;5090649;28;20016;-79
2022/09/01 03:52:10;;;;;;;6.47;5.00;;;;;;;13.72;100.00;100137.25;5091213;28;20372;-80
2022/09/01 03:54:36;;;;;;;9.50;5.43;;;;;;;13.67;100.00;100130.56;5090066;28;20020;-79
2022/09/01 03:57:04;;;;;;;8.55;5.07;;;;;;;13.68;100.00;100121.78;5091065;28;20031;-79
2022/09/01 03:59:31;;;;;;;10.38;5.00;;;;;;;13.63;100.00;100119.41;5089996;28;20781;-79
2022/09/01 04:01:57;;;;;;;9.75;5.28;;;;;;;13.71;100.00;100132.94;5090859;28;20107;-79
2022/09/01 04:04:22;;;;;;;11.43;5.22;;;;;;;13.75;100.00;100138.03;5091208;28;20051;-79
2022/09/01 04:06:48;;;;;;;8.70;5.50;;;;;;;13.66;100.00;100124.47;5091063;28;20435;-79
2022/09/01 04:09:13;;;;;;;6.75;5.13;;;;;;;13.71;100.00;100132.94;5091068;28;20480;-79
2022/09/01 04:11:40;;;;;;;6.93;5.57;;;;;;;13.67;100.00;100130.56;5091141;28;20020;-79
2022/09/01 04:14:06;;;;;;;8.77;5.43;;;;;;;13.72;100.00;100137.25;5090938;28;20110;-79
2022/09/01 04:19:24;;;;;;;8.07;5.63;;;;;;;13.73;100.00;100132.84;5091166;28;20085;-79
2022/09/01 04:21:55;;;;;;;7.57;5.13;;;;;;;13.72;100.00;100139.03;5090714;28;20030;-79
2022/09/01 04:24:23;;;;;;;12.82;5.78;;;;;;;13.68;100.00;100124.41;5090887;28;20081;-79
2022/09/01 04:26:50;;;;;;;9.77;6.13;;;;;;;13.71;100.00;100125.09;5090642;28;20510;-79
2022/09/01 04:29:18;;;;;;;8.48;5.03;;;;;;;13.76;100.00;100137.94;5090691;28;20055;-79
2022/09/01 04:31:44;;;;;;;8.50;5.03;;;;;;;13.74;100.00;100126.72;5090624;28;20024;-79
2022/09/01 04:34:12;;;;;;;8.38;5.00;;;;;;;13.81;100.00;100129.84;5090906;28;20483;-80
2022/09/01 04:36:40;;;;;;;7.55;5.38;;;;;;;13.83;100.00;100139.31;5090826;28;20099;-80
2022/09/01 04:39:08;;;;;;;8.45;5.30;;;;;;;13.85;100.00;100140.06;5090726;28;20024;-79
2022/09/01 04:41:36;;;;;;;9.85;5.90;;;;;;;13.81;100.00;100125.44;5090602;28;20053;-79
2022/09/01 04:44:03;;;;;;;13.73;6.75;;;;;;;13.85;100.00;100132.22;5090685;28;20032;-79
2022/09/01 04:46:31;;;;;;;13.73;7.88;;;;;;;13.91;100.00;100134.53;5090910;28;20031;-79
2022/09/01 04:48:58;;;;;;;13.77;7.30;;;;;;;13.87;100.00;100124.28;5090485;28;20042;-79
2022/09/01 04:51:26;;;;;;;11.45;6.75;;;;;;;13.91;100.00;100128.44;5090660;28;20036;-79
2022/09/01 04:53:56;;;;;;;10.60;6.63;;;;;;;13.93;100.00;100129.19;5090267;28;20038;-80
2022/09/01 04:56:24;;;;;;;8.52;6.22;;;;;;;13.98;100.00;100141.13;5090581;28;20016;-80
2022/09/01 04:58:50;;;;;;;9.85;6.40;;;;;;;14.02;100.00;100135.72;5090597;28;20058;-79
2022/09/01 05:01:20;;;;;;;8.45;6.22;;;;;;;14.08;100.00;100135.41;5102057;28;20106;-79
2022/09/01 05:04:00;;;;;;;10.00;7.00;;;;;;;14.12;100.00;100142.19;5114458;28;20039;-80
2022/09/01 05:06:27;;;;;;;9.00;6.35;;;;;;;14.11;100.00;100140.47;5114639;28;20372;-80
2022/09/01 05:08:52;;;;;;;8.25;6.45;;;;;;;14.10;100.00;100138.78;5114257;28;20059;-79
2022/09/01 05:11:18;;;;;;;7.43;5.95;;;;;;;14.16;100.00;100148.94;5114672;28;20051;-79
2022/09/01 05:13:46;;;;;;;8.57;6.15;;;;;;;14.11;100.00;100138.69;5113996;28;20438;-79
2022/09/01 05:16:15;;;;;;;12.38;6.53;;;;;;;14.16;100.00;100133.22;5103831;28;20055;-79
2022/09/01 05:18:46;;;;;;;10.13;6.63;;;;;;;14.22;100.00;100138.13;5094791;28;20523;-79
2022/09/01 05:21:13;;;;;;;7.95;6.15;;;;;;;14.31;100.00;100147.25;5094656;28;20095;-80
2022/09/01 05:23:39;;;;;;;10.85;6.18;;;;;;;14.41;100.00;100151.94;5094903;28;20032;-79
2022/09/01 05:26:16;;;;;;;9.60;6.32;;;;;;;14.45;100.00;100150.84;5094637;28;20020;-79
2022/09/01 05:28:47;;;;;;;8.80;6.00;;;;;;;14.52;100.00;100145.28;5094478;28;20027;-79
2022/09/01 05:31:13;;;;;;;9.10;6.25;;;;;;;14.59;100.00;100151.88;5092379;28;20468;-80
2022/09/01 05:33:44;;;;;;;14.40;6.25;;;;;;;14.70;100.00;100149.50;5094497;28;20024;-80
2022/09/01 05:36:12;;;;;;;13.00;7.00;;;;;;;14.72;100.00;100135.38;5094612;28;20066;-80
2022/09/01 05:38:40;;;;;;;12.27;7.40;;;;;;;14.84;100.00;100140.88;5094610;28;20035;-80
2022/09/01 05:41:05;;;;;;;16.13;7.32;;;;;;;14.90;100.00;100138.75;5093073;28;20027;-80
2022/09/01 05:43:32;;;;;;;13.00;6.10;;;;;;;15.07;100.00;100142.19;5094370;28;20468;-80
2022/09/01 05:45:59;;;;;;;10.80;6.45;;;;;;;15.67;100.00;100161.44;5094024;28;20016;-79
2022/09/01 05:48:27;;;;;;;9.30;6.18;;;;;;;16.01;97.57;100148.84;5094154;28;20031;-79
2022/09/01 05:50:56;;;;;;;9.10;6.13;;;;;;;16.14;95.88;100151.59;5094156;28;20021;-80
2022/09/01 05:53:24;;;;;;;9.20;6.32;;;;;;;16.26;94.88;100156.06;5094151;28;20074;-80
2022/09/01 05:55:55;;;;;;;8.23;5.57;;;;;;;16.36;94.16;100159.84;5093931;28;20384;-80
2022/09/01 05:58:23;;;;;;;8.02;5.90;;;;;;;16.31;93.26;100142.69;5093810;28;20035;-81
2022/09/01 06:00:50;;;;;;;9.82;5.40;;;;;;;16.36;92.99;100161.63;5110348;28;20020;-80
2022/09/01 06:03:17;;;;;;;9.57;5.57;;;;;;;16.25;93.09;100157.03;5114318;28;20059;-80
2022/09/01 06:05:44;;;;;;;8.75;5.47;;;;;;;16.29;92.61;100165.56;5114432;28;20019;-80
2022/09/01 06:08:12;;;;;;;6.32;4.88;;;;;;;16.27;92.70;100172.72;5114265;28;20046;-80
2022/09/01 06:10:39;;;;;;;8.15;4.80;;;;;;;16.30;92.71;100170.72;5114216;28;20023;-80
2022/09/01 06:13:05;;;;;;;8.13;4.57;;;;;;;16.38;92.50;100175.50;5113774;28;20047;-80
2022/09/01 06:15:32;;;;;;;6.85;5.03;;;;;;;16.48;92.01;100171.38;5114225;28;20031;-79
2022/09/01 06:17:59;;;;;;;6.03;4.82;;;;;;;16.57;91.54;100155.00;5113978;28;20039;-80
2022/09/01 06:20:25;;;;;;;7.32;4.65;;;;;;;17.05;91.11;100167.78;5114131;28;20363;-80
2022/09/01 06:22:51;;;;;;;6.28;4.15;;;;;;;18.41;86.44;100151.47;5113823;28;20023;-80
2022/09/01 06:25:17;;;;;;;6.97;4.18;;;;;;;18.51;84.19;100161.34;5114048;28;20026;-80
2022/09/01 06:27:43;;;;;;;4.85;3.95;;;;;;;18.35;83.27;100165.06;5114014;28;20094;-80
2022/09/01 06:30:15;;;;;;;5.80;4.25;;;;;;;18.01;83.32;100157.84;5113585;28;20063;-80
2022/09/01 06:32:44;;;;;;;5.05;3.40;;;;;;;17.97;83.85;100165.09;5113947;28;20020;-80
2022/09/01 06:35:14;;;;;;;7.18;4.15;;;;;;;18.18;83.76;100170.69;5113590;28;20551;-80
2022/09/01 06:37:41;;;;;;;;;;;;;;;18.31;83.40;100173.31;5114356;28;20407;-80
2022/09/01 06:40:15;;;;;;;12.60;4.03;;;;;;;18.26;82.97;100178.06;5113397;28;19922;-80
2022/09/01 06:42:42;;;;;;;10.65;4.68;;;;;;;18.51;82.80;100164.00;5113594;28;20012;-80
2022/09/01 06:45:09;;;;;;;4.28;3.33;;;;;;;19.12;81.47;100172.75;5113394;28;20019;-80
2022/09/01 06:47:35;;;;;;;5.68;3.45;;;;;;;19.34;79.21;100172.84;5113461;28;20522;-80
2022/09/01 06:50:01;;;;;;;7.18;3.85;;;;;;;19.20;78.65;100173.03;5113200;28;20455;-80
2022/09/01 06:52:27;;;;;;;8.48;3.92;;;;;;;18.83;79.40;100169.59;5113347;28;20051;-80
2022/09/01 06:54:53;;;;;;;5.18;3.50;;;;;;;18.66;79.52;100187.44;5112927;28;20130;-80
2022/09/01 06:57:21;;;;;;;6.53;3.80;;;;;;;18.89;79.55;100177.09;5113173;27;20027;-80
2022/09/01 06:59:46;;;;;;;7.40;3.78;;;;;;;20.43;76.76;100189.13;5113351;28;20019;-80
2022/09/01 07:02:15;;;;;;;5.55;3.10;;;;;;;21.40;73.82;100173.38;5113352;28;20019;-80
2022/09/01 07:04:44;;;;;;;5.57;2.95;;;;;;;21.85;70.95;100166.03;5113041;28;20044;-80
2022/09/01 07:07:11;;;;;;;7.28;3.53;;;;;;;21.97;70.04;100171.25;5111630;28;20016;-80
2022/09/01 07:09:38;;;;;;;5.80;3.45;;;;;;;22.83;68.24;100170.72;5112911;28;20020;-80
2022/09/01 07:12:05;;;;;;;5.38;3.03;;;;;;;24.68;63.13;100183.75;5112887;27;20040;-80
2022/09/01 07:14:30;;;;;;;3.78;2.70;;;;;;;27.48;57.38;100174.38;5113098;28;20050;-80
2022/09/01 07:16:57;;;;;;;7.05;3.15;;;;;;;31.50;49.23;100182.44;5112894;28;20023;-80
2022/09/01 07:19:24;;;;;;;4.13;2.40;;;;;;;34.39;43.37;100180.94;5112858;28;20027;-81
2022/09/01 07:21:51;;;;;;;4.80;2.58;;;;;;;36.82;39.33;100182.81;5112587;28;20019;-81
2022/09/01 07:24:17;;;;;;;5.57;2.45;;;;;;;38.69;35.56;100176.59;5112310;28;20023;-81
2022/09/01 07:26:43;;;;;;;7.55;2.20;;;;;;;40.08;33.03;100175.06;5112953;28;20431;-81
2022/09/01 07:29:08;;;;;;;2.55;1.95;;;;;;;40.94;31.63;100177.16;5112622;28;20030;-81
2022/09/01 07:31:40;;;;;;;8.63;2.50;;;;;;;42.40;30.14;100174.91;5112803;28;20019;-81
2022/09/01 07:34:09;;;;;;;5.38;3.00;;;;;;;40.40;30.55;100172.47;5112299;28;20020;-79
2022/09/01 07:36:36;;;;;;;3.08;2.33;;;;;;;41.10;30.78;100189.91;5112687;28;20366;-79
2022/09/01 07:39:03;;;;;;;3.40;2.28;;;;;;;41.61;29.54;100184.03;5112573;27;20102;-79
2022/09/01 07:41:29;;;;;;;3.72;1.95;;;;;;;41.00;29.68;100184.34;5112706;28;20027;-79
2022/09/01 07:43:55;;;;;;;5.00;2.35;;;;;;;41.24;29.10;100179.34;5112425;28;20031;-79
2022/09/01 07:46:22;;;;;;;3.88;2.33;;;;;;;40.23;30.10;100182.66;5102964;28;20045;-81
2022/09/01 07:48:49;;;;;;;2.40;2.10;;;;;;;42.02;29.27;100184.31;5101919;28;20023;-81
2022/09/01 07:51:18;;;;;;;1.90;1.70;;;;;;;42.85;28.10;100189.81;5100557;28;20065;-81
2022/09/01 07:53:49;;;;;;;4.05;2.00;;;;;;;42.49;28.15;100189.72;5099577;28;20039;-81
2022/09/01 07:56:18;;;;;;;3.15;2.20;;;;;;;43.10;27.35;100197.25;5106030;28;20077;-81
2022/09/01 07:58:45;;;;;;;3.92;2.10;;;;;;;43.10;27.54;100178.06;5112438;28;20019;-81
2022/09/01 08:01:17;;;;;;;3.53;2.10;;;;;;;43.41;26.94;100184.38;5112091;28;20095;-81
2022/09/01 08:03:44;;;;;;;2.95;1.95;;;;;;;43.03;27.18;100192.03;5111940;28;20043;-80
2022/09/01 08:06:12;;;;;;;2.90;1.80;;;;;;;42.45;27.78;100190.53;5112325;28;20019;-80
2022/09/01 08:08:38;;;;;;;2.38;1.70;;;;;;;41.98;27.97;100194.97;5111642;28;20031;-80
2022/09/01 08:11:04;;;;;;;2.95;2.05;;;;;;;38.77;30.48;100186.31;5101811;28;20020;-80
2022/09/01 08:13:31;;;;;;;4.68;2.30;;;;;;;33.92;34.38;100190.19;5100054;28;20376;-80
2022/09/01 08:15:56;;;;;;;3.90;1.85;;;;;;;31.25;37.66;100179.31;5100067;28;20011;-80
2022/09/01 08:18:21;;;;;;;2.13;1.63;;;;;;;27.56;43.65;100178.91;5101638;28;20039;-80
2022/09/01 08:20:47;;;;;;;4.03;1.77;;;;;;;26.60;46.32;100180.25;5098467;28;20027;-80
2022/09/01 08:23:17;;;;;;;2.03;1.83;;;;;;;25.83;47.70;100189.16;5100756;28;20053;-80
2022/09/01 08:25:44;;;;;;;3.83;2.15;;;;;;;24.95;49.67;100186.38;5101720;28;20106;-80
2022/09/01 08:28:12;;;;;;;3.20;2.03;;;;;;;24.30;51.82;100194.41;5105934;28;20399;-80
2022/09/01 08:30:41;;;;;;;3.58;1.90;;;;;;;23.53;53.46;100181.28;5112084;28;20028;-80
2022/09/01 08:33:10;;;;;;;3.28;2.25;;;;;;;23.05;55.59;100175.00;5111755;28;20396;-80
2022/09/01 08:35:38;;;;;;;3.55;2.30;;;;;;;22.89;56.15;100177.31;5104636;28;20570;-79
2022/09/01 08:38:03;;;;;;;3.35;2.33;;;;;;;22.71;57.38;100174.47;5114472;28;20026;-79
2022/09/01 08:40:29;;;;;;;4.18;2.55;;;;;;;22.69;58.33;100188.88;5116096;28;20098;-79
2022/09/01 08:43:18;;;;;;;4.68;2.78;;;;;;;22.49;58.04;100195.94;5106944;28;20120;-79
2022/09/01 08:45:53;;;;;;;4.57;2.77;;;;;;;22.12;58.79;100199.09;5095625;28;20024;-79
2022/09/01 08:48:22;;;;;;;5.50;2.70;;;;;;;21.86;60.30;100198.69;5095069;28;20016;-79
2022/09/01 08:50:58;;;;;;;5.07;2.60;;;;;;;21.66;61.18;100187.97;5095381;28;20031;-79
2022/09/01 08:53:33;;;;;;;4.00;2.85;;;;;;;21.31;62.36;100180.28;5094812;28;20395;-79
2022/09/01 08:55:59;;;;;;;6.30;2.75;;;;;;;21.35;62.80;100188.84;5094578;28;20510;-79
2022/09/01 08:58:29;;;;;;;4.32;2.70;;;;;;;21.28;63.03;100166.44;5095115;28;20019;-79
2022/09/01 09:01:26;;;;;;;5.35;2.55;;;;;;;21.25;62.81;100178.13;5095017;28;20026;-79
2022/09/01 09:04:29;;;;;;;4.22;2.60;;;;;;;21.02;64.08;100193.25;5094869;28;20054;-79
2022/09/01 09:07:17;;;;;;;2.70;2.28;;;;;;;21.26;63.19;100187.75;5094950;28;20024;-79
2022/09/01 09:09:55;;;;;;;3.28;1.83;;;;;;;20.87;62.40;100187.41;5095071;28;20308;-80
2022/09/01 09:12:59;;;;;;;2.72;1.90;;;;;;;20.87;62.33;100187.41;5094826;28;20105;-80
2022/09/01 09:15:50;;;;;;;2.22;1.65;;;;;;;20.99;61.56;100182.94;5095050;28;20115;-79
2022/09/01 09:18:31;;;;;;;2.70;1.75;;;;;;;20.92;61.67;100190.53;5094681;28;20098;-79
2022/09/01 09:21:06;;;;;;;3.90;1.60;;;;;;;20.92;61.29;100179.94;5094428;28;20472;-79
2022/09/01 09:23:40;;;;;;;5.15;1.70;;;;;;;21.24;60.72;100184.41;5094780;28;20026;-79
2022/09/01 09:26:06;;;;;;;1.75;1.45;;;;;;;21.63;58.98;100185.56;5094291;28;20460;-79
2022/09/01 09:28:31;;;;;;;3.08;2.28;;;;;;;21.86;58.64;100191.56;5094559;28;20016;-80
2022/09/01 09:31:33;;;;;;;3.20;2.05;;;;;;;21.81;57.79;100191.13;5094330;28;20027;-80
2022/09/01 09:33:59;;;;;;;8.75;3.10;;;;;;;21.49;57.20;100182.38;5094616;28;20583;-79
2022/09/01 09:36:45;;;;;;;4.28;2.28;;;;;;;21.10;57.57;100174.94;5094387;28;20020;-79
2022/09/01 09:39:17;;;;;;;5.50;2.72;;;;;;;21.01;58.96;100183.63;5094316;28;20024;-79
2022/09/01 09:41:50;;;;;;;5.78;2.20;;;;;;;20.85;59.42;100177.91;5094243;28;20077;-79
2022/09/01 09:44:28;;;;;;;2.75;1.95;;;;;;;20.51;60.68;100180.63;5094518;28;20024;-79
2022/09/01 09:46:55;;;;;;;2.05;1.83;;;;;;;20.29;61.26;100185.91;5094052;28;20033;-79
2022/09/01 09:49:25;;;;;;;6.32;2.00;;;;;;;20.03;61.48;100180.84;5094285;28;20106;-79
2022/09/01 09:51:50;;;;;;;5.97;2.58;;;;;;;19.89;62.52;100189.84;5094154;28;20069;-79
2022/09/01 09:54:27;;;;;;;4.15;1.98;;;;;;;19.87;62.67;100167.94;5093733;28;20024;-79
2022/09/01 09:57:10;;;;;;;4.03;1.80;;;;;;;20.14;61.72;100182.63;5094220;28;20046;-79
2022/09/01 09:59:41;;;;;;;2.03;1.77;;;;;;;20.38;61.18;100185.16;5094005;28;20023;-79
2022/09/01 10:02:25;;;;;;;3.80;1.50;;;;;;;20.42;60.94;100187.44;5093725;28;20443;-79
2022/09/01 10:04:51;;;;;;;3.17;1.45;;;;;;;20.28;60.24;100177.13;5094072;28;20036;-79
2022/09/01 10:07:23;;;;;;;3.35;1.50;;;;;;;20.46;60.03;100189.84;5093880;28;20451;-79
2022/09/01 10:09:48;;;;;;;2.83;1.58;;;;;;;20.69;60.23;100188.91;5094050;28;20028;-79
2022/09/01 10:12:14;;;;;;;2.28;1.30;;;;;;;20.83;58.92;100169.25;5093685;28;20341;-79
2022/09/01 10:14:51;;;;;;;2.55;1.50;;;;;;;21.01;59.24;100178.34;5093964;28;20035;-79
2022/09/01 10:17:23;;;;;;;2.78;1.70;;;;;;;20.97;58.83;100174.25;5093432;28;20428;-79
2022/09/01 10:19:56;;;;;;;1.73;1.30;;;;;;;20.99;57.15;100177.63;5096123;28;20119;-80
2022/09/01 10:22:23;;;;;;;2.88;1.33;;;;;;;20.89;56.56;100174.03;5093399;28;20020;-81
2022/09/01 10:24:49;;;;;;;5.15;1.60;;;;;;;21.00;56.28;100171.38;5095778;28;20046;-81
2022/09/01 10:27:20;;;;;;;2.35;1.15;;;;;;;21.14;55.35;100175.53;5093273;28;20020;-81
2022/09/01 10:29:51;;;;;;;4.72;1.25;;;;;;;21.08;54.66;100163.63;5093032;28;20031;-81
2022/09/01 10:32:23;;;;;;;1.35;1.25;;;;;;;20.93;54.28;100160.44;5105868;28;20172;-81
2022/09/01 10:34:49;;;;;;;1.27;1.20;;;;;;;20.94;54.89;100158.63;5113413;28;20023;-81
2022/09/01 10:37:15;;;;;;;1.48;1.38;;;;;;;21.05;54.96;100171.81;5113534;28;20026;-81
2022/09/01 10:40:11;;;;;;;2.78;1.60;;;;;;;21.07;53.88;100167.25;5113377;28;20372;-81
2022/09/01 10:42:41;;;;;;;1.23;1.13;;;;;;;21.01;54.59;100158.97;5113228;28;20513;-79
2022/09/01 10:45:16;;;;;;;4.70;1.35;;;;;;;21.02;54.64;100164.13;5113181;28;20518;-79
2022/09/01 10:47:42;;;;;;;3.95;1.33;;;;;;;20.82;54.51;100176.38;5113501;28;20030;-79
2022/09/01 10:50:31;;;;;;;7.20;1.98;;;;;;;20.70;54.82;100181.81;5113180;28;20023;-79
2022/09/01 10:52:59;;;;;;;3.08;1.20;;;;;;;20.75;54.12;100175.16;5113528;28;20044;-79
2022/09/01 10:55:30;;;;;;;2.15;1.80;;;;;;;20.91;53.88;100172.97;5113263;28;20038;-79
2022/09/01 10:58:27;;;;;;;;;;;;;;;20.88;54.16;100180.31;5113399;28;20020;-79
2022/09/01 11:00:53;;;;;;;1.83;1.35;;;;;;;20.62;53.93;100180.59;5050209;28;19908;-79
2022/09/01 11:03:20;;;;;;;3.40;1.25;;;;;;;20.52;54.33;100186.75;5049505;28;20108;-79
2022/09/01 11:05:54;;;;;;;1.40;1.30;;;;;;;20.41;54.76;100191.06;5050203;28;20021;-79
2022/09/01 11:08:28;;;;;;;1.83;0.93;;;;;;;20.24;54.71;100185.41;5050185;28;20070;-79
2022/09/01 11:10:59;;;;;;;3.92;1.20;;;;;;;20.09;54.00;100166.28;5050014;28;20431;-81
2022/09/01 11:13:42;;;;;;;1.95;1.30;;;;;;;20.16;53.91;100178.09;5049973;28;20163;-81
2022/09/01 11:16:25;;;;;;;3.03;1.90;;;;;;;20.25;53.59;100173.88;5032788;28;20053;-80
2022/09/01 11:18:50;;;;;;;2.45;1.17;;;;;;;20.28;54.14;100177.13;5050278;28;20390;-80
2022/09/01 11:21:26;;;;;;;1.38;1.23;;;;;;;20.48;54.14;100179.97;5049699;28;20026;-80
2022/09/01 11:24:30;;;;;;;1.67;1.30;;;;;;;20.54;53.55;100167.16;5049708;28;20112;-80
2022/09/01 11:26:56;;;;;;;3.38;1.00;;;;;;;20.49;54.98;100173.78;5049933;28;20366;-80
2022/09/01 11:29:54;;;;;;;1.38;1.13;;;;;;;20.56;53.95;100180.25;5049542;28;20534;-80
2022/09/01 11:32:24;;;;;;;1.55;1.27;;;;;;;20.35;53.78;100165.09;5049492;28;20020;-80
2022/09/01 11:34:51;;;;;;;5.32;1.73;;;;;;;20.46;55.03;100172.16;5049753;28;20040;-80
2022/09/01 11:37:22;;;;;;;3.88;1.20;;;;;;;20.39;53.42;100171.84;5101288;28;20031;-81
2022/09/01 11:39:48;;;;;;;;;;;;;;;20.48;53.84;100174.69;5113085;28;20028;-81